createdAt,value
2023-02-12T00:00:52.684Z,100.00
2023-02-12T00:01:28.557Z,100.00
2023-02-12T00:02:15.678Z,100.00
2023-02-12T00:03:09.626Z,100.00
2023-02-12T00:04:03.665Z,100.00
2023-02-12T00:04:57.615Z,100.00
2023-02-12T00:05:53.925Z,100.00
2023-02-12T00:06:48.599Z,100.00
2023-02-12T00:07:45.612Z,100.00
2023-02-12T00:08:39.632Z,100.00
2023-02-12T00:09:33.589Z,100.00
2023-02-12T00:10:27.567Z,100.00
2023-02-12T00:11:17.605Z,100.00
2023-02-12T00:11:51.683Z,100.00
2023-02-12T00:12:38.572Z,100.00
2023-02-12T00:13:12.665Z,100.00
2023-02-12T00:14:00.600Z,100.00
2023-02-12T00:14:34.806Z,100.00
2023-02-12T00:15:21.559Z,100.00
2023-02-12T00:15:56.082Z,100.00
2023-02-12T00:16:36.586Z,100.00
2023-02-12T00:17:16.698Z,100.00
2023-02-12T00:17:57.556Z,100.00
2023-02-12T00:18:37.637Z,100.00
2023-02-12T00:19:17.556Z,100.00
2023-02-12T00:19:57.647Z,100.00
2023-02-12T00:20:37.603Z,100.00
2023-02-12T00:21:17.708Z,100.00
2023-02-12T00:21:58.580Z,100.00
2023-02-12T00:22:38.666Z,100.00
2023-02-12T00:23:18.629Z,100.00
2023-02-12T00:23:58.719Z,100.00
2023-02-12T00:24:39.550Z,100.00
2023-02-12T00:25:19.655Z,100.00
2023-02-12T00:26:00.567Z,100.00
2023-02-12T00:26:42.647Z,100.00
2023-02-12T00:27:22.582Z,100.00
2023-02-12T00:28:02.697Z,100.00
2023-02-12T00:28:43.604Z,100.00
2023-02-12T00:29:24.954Z,100.00
2023-02-12T00:30:04.571Z,100.00
2023-02-12T00:30:44.765Z,100.00
2023-02-12T00:31:31.622Z,100.00
2023-02-12T00:32:11.805Z,100.00
2023-02-12T00:32:52.587Z,100.00
2023-02-12T00:33:32.845Z,100.00
2023-02-12T00:34:17.571Z,100.00
2023-02-12T00:34:57.623Z,100.00
2023-02-12T00:35:38.570Z,100.00
2023-02-12T00:36:36.574Z,100.00
2023-02-12T00:37:30.546Z,100.00
2023-02-12T00:38:17.627Z,100.00
2023-02-12T00:38:52.667Z,100.00
2023-02-12T00:39:39.612Z,100.00
2023-02-12T00:40:14.591Z,100.00
2023-02-12T00:41:01.558Z,100.00
2023-02-12T00:41:35.597Z,100.00
2023-02-12T00:42:22.593Z,100.00
2023-02-12T00:42:56.598Z,100.00
2023-02-12T00:43:37.568Z,100.00
2023-02-12T00:44:17.573Z,100.00
2023-02-12T00:44:58.565Z,100.00
2023-02-12T00:45:39.644Z,100.00
2023-02-12T00:46:20.623Z,100.00
2023-02-12T00:47:03.655Z,100.00
2023-02-12T00:47:43.549Z,100.00
2023-02-12T00:48:23.595Z,100.00
2023-02-12T00:49:03.578Z,100.00
2023-02-12T00:49:44.614Z,100.00
2023-02-12T00:50:25.560Z,100.00
2023-02-12T00:51:05.601Z,100.00
2023-02-12T00:51:45.547Z,100.00
2023-02-12T00:52:28.223Z,100.00
2023-02-12T00:53:08.537Z,100.00
2023-02-12T00:53:49.653Z,100.00
2023-02-12T00:54:30.584Z,100.00
2023-02-12T00:55:11.729Z,100.00
2023-02-12T00:55:52.761Z,100.00
2023-02-12T00:56:33.563Z,100.00
2023-02-12T00:57:13.775Z,100.00
2023-02-12T00:57:54.624Z,100.00
2023-02-12T00:58:35.532Z,100.00
2023-02-12T00:59:15.594Z,100.00
2023-02-12T00:59:56.609Z,100.00
2023-02-12T01:00:36.639Z,100.00
2023-02-12T01:01:16.601Z,100.00
2023-02-12T01:01:58.674Z,100.00
2023-02-12T01:02:38.516Z,100.00
2023-02-12T01:03:18.817Z,100.00
2023-02-12T01:03:58.519Z,100.00
2023-02-12T01:04:38.637Z,100.00
2023-02-12T01:05:19.680Z,100.00
2023-02-12T01:06:00.605Z,100.00
2023-02-12T01:06:40.585Z,100.00
2023-02-12T01:07:20.635Z,100.00
2023-02-12T01:08:01.526Z,100.00
2023-02-12T01:08:41.618Z,100.00
2023-02-12T01:09:22.523Z,100.00
2023-02-12T01:10:02.570Z,100.00
2023-02-12T01:10:42.526Z,100.00
2023-02-12T01:11:22.890Z,100.00
2023-02-12T01:12:02.646Z,100.00
2023-02-12T01:12:42.599Z,100.00
2023-02-12T01:13:22.507Z,100.00
2023-02-12T01:14:03.600Z,100.00
2023-02-12T01:14:43.794Z,100.00
2023-02-12T01:15:25.606Z,100.00
2023-02-12T01:16:24.671Z,100.00
2023-02-12T01:17:04.596Z,100.00
2023-02-12T01:17:45.556Z,100.00
2023-02-12T01:18:26.613Z,100.00
2023-02-12T01:19:07.559Z,100.00
2023-02-12T01:19:47.601Z,100.00
2023-02-12T01:20:31.526Z,100.00
2023-02-12T01:21:21.611Z,100.00
2023-02-12T01:22:01.534Z,100.00
2023-02-12T01:22:43.565Z,100.00
2023-02-12T01:23:24.508Z,100.00
2023-02-12T01:24:05.563Z,100.00
2023-02-12T01:24:45.528Z,100.00
2023-02-12T01:25:26.564Z,100.00
2023-02-12T01:26:06.522Z,100.00
2023-02-12T01:26:46.587Z,100.00
2023-02-12T01:27:26.532Z,100.00
2023-02-12T01:28:06.764Z,100.00
2023-02-12T01:28:49.524Z,100.00
2023-02-12T01:29:29.570Z,100.00
2023-02-12T01:30:11.547Z,100.00
2023-02-12T01:30:52.657Z,100.00
2023-02-12T01:31:36.585Z,100.00
2023-02-12T01:32:17.889Z,100.00
2023-02-12T01:32:58.549Z,100.00
2023-02-12T01:33:38.581Z,100.00
2023-02-12T01:34:19.510Z,100.00
2023-02-12T01:34:59.567Z,100.00
2023-02-12T01:35:39.511Z,100.00
2023-02-12T01:36:20.582Z,100.00
2023-02-12T01:37:00.499Z,100.00
2023-02-12T01:37:43.764Z,100.00
2023-02-12T01:38:26.578Z,100.00
2023-02-12T01:39:07.691Z,100.00
2023-02-12T01:39:47.538Z,100.00
2023-02-12T01:40:27.582Z,100.00
2023-02-12T01:41:22.487Z,100.00
2023-02-12T01:42:02.572Z,100.00
2023-02-12T01:42:43.492Z,100.00
2023-02-12T01:43:23.559Z,100.00
2023-02-12T01:44:29.605Z,100.00
2023-02-12T01:45:21.597Z,100.00
2023-02-12T01:46:01.513Z,100.00
2023-02-12T01:46:41.723Z,100.00
2023-02-12T01:47:24.480Z,100.00
2023-02-12T01:48:07.539Z,100.00
2023-02-12T01:48:53.504Z,100.00
2023-02-12T01:49:51.491Z,100.00
2023-02-12T01:50:45.518Z,100.00
2023-02-12T01:51:39.508Z,100.00
2023-02-12T01:52:41.496Z,100.00
2023-02-12T01:53:37.486Z,100.00
2023-02-12T01:54:33.486Z,100.00
2023-02-12T01:55:15.532Z,100.00
2023-02-12T01:55:58.570Z,100.00
2023-02-12T01:56:39.446Z,100.00
2023-02-12T01:57:21.558Z,100.00
2023-02-12T01:58:01.492Z,100.00
2023-02-12T01:58:46.558Z,100.00
2023-02-12T01:59:27.483Z,100.00
2023-02-12T02:00:10.573Z,100.00
2023-02-12T02:00:51.517Z,100.00
2023-02-12T02:01:35.638Z,100.00
2023-02-12T02:02:15.495Z,100.00
2023-02-12T02:03:04.572Z,100.00
2023-02-12T02:03:46.565Z,100.00
2023-02-12T02:04:31.589Z,100.00
2023-02-12T02:05:13.477Z,100.00
2023-02-12T02:06:08.556Z,100.00
2023-02-12T02:07:18.482Z,100.00
2023-02-12T02:08:13.498Z,100.00
2023-02-12T02:09:09.470Z,100.00
2023-02-12T02:10:03.538Z,100.00
2023-02-12T02:10:57.478Z,100.00
2023-02-12T02:11:56.475Z,100.00
2023-02-12T02:12:56.356Z,100.00
2023-02-12T02:13:55.482Z,100.00
2023-02-12T02:14:35.577Z,100.00
2023-02-12T02:15:16.462Z,100.00
2023-02-12T02:16:01.601Z,100.00
2023-02-12T02:16:43.468Z,100.00
2023-02-12T02:18:04.492Z,100.00
2023-02-12T02:18:56.514Z,100.00
2023-02-12T02:20:06.481Z,100.00
2023-02-12T02:20:48.580Z,100.00
2023-02-12T02:21:38.473Z,100.00
2023-02-12T02:22:50.496Z,100.00
2023-02-12T02:24:01.478Z,100.00
2023-02-12T02:24:54.887Z,100.00
2023-02-12T02:26:47.506Z,100.00
2023-02-12T02:27:57.594Z,100.00
2023-02-12T02:28:40.433Z,100.00
2023-02-12T02:29:39.459Z,100.00
2023-02-12T02:30:21.527Z,100.00
2023-02-12T02:31:38.531Z,100.00
2023-02-12T02:32:30.562Z,100.00
2023-02-12T02:33:44.407Z,100.00
2023-02-12T02:34:53.438Z,100.00
2023-02-12T02:36:17.438Z,100.00
2023-02-12T02:37:32.467Z,100.00
2023-02-12T02:38:53.438Z,100.00
2023-02-12T02:40:02.475Z,100.00
2023-02-12T02:41:08.428Z,100.00
2023-02-12T02:42:18.406Z,100.00
2023-02-12T02:43:23.431Z,100.00
2023-02-12T02:44:27.444Z,100.00
2023-02-12T02:45:47.439Z,100.00
2023-02-12T02:46:49.437Z,100.00
2023-02-12T02:47:57.399Z,100.00
2023-02-12T02:49:01.441Z,100.00
2023-02-12T02:50:06.435Z,100.00
2023-02-12T02:51:07.455Z,100.00
2023-02-12T02:52:06.422Z,100.00
2023-02-12T02:53:22.420Z,100.00
2023-02-12T02:54:30.400Z,100.00
2023-02-12T02:55:28.408Z,100.00
2023-02-12T02:56:28.452Z,100.00
2023-02-12T02:57:33.421Z,100.00
2023-02-12T02:58:53.430Z,100.00
2023-02-12T02:59:53.416Z,100.00
2023-02-12T03:00:53.432Z,100.00
2023-02-12T03:02:29.451Z,100.00
2023-02-12T03:03:47.431Z,100.00
2023-02-12T03:04:56.441Z,100.00
2023-02-12T03:05:57.720Z,100.00
2023-02-12T03:07:04.386Z,100.00
2023-02-12T03:08:04.510Z,100.00
2023-02-12T03:08:55.494Z,100.00
2023-02-12T03:10:08.375Z,100.00
2023-02-12T03:10:51.506Z,100.00
2023-02-12T03:11:40.405Z,100.00
2023-02-12T03:12:30.495Z,100.00
2023-02-12T03:13:23.424Z,100.00
2023-02-12T03:14:13.438Z,100.00
2023-02-12T03:15:19.406Z,100.00
2023-02-12T03:16:27.501Z,100.00
2023-02-12T03:17:20.390Z,100.00
2023-02-12T03:17:56.440Z,100.00
2023-02-12T03:18:54.413Z,100.00
2023-02-12T03:19:36.520Z,100.00
2023-02-12T03:20:28.387Z,100.00
2023-02-12T03:21:09.487Z,100.00
2023-02-12T03:22:13.394Z,100.00
2023-02-12T03:22:52.542Z,100.00
2023-02-12T03:23:49.397Z,100.00
2023-02-12T03:24:45.413Z,100.00
2023-02-12T03:25:49.397Z,100.00
2023-02-12T03:27:24.370Z,100.00
2023-02-12T03:28:26.439Z,100.00
2023-02-12T03:29:20.397Z,100.00
2023-02-12T03:30:08.424Z,100.00
2023-02-12T03:31:25.704Z,100.00
2023-02-12T03:32:37.389Z,100.00
2023-02-12T03:33:32.433Z,100.00
2023-02-12T03:34:46.400Z,100.00
2023-02-12T03:35:46.391Z,100.00
2023-02-12T03:36:46.387Z,100.00
2023-02-12T03:38:08.378Z,100.00
2023-02-12T03:39:12.373Z,100.00
2023-02-12T03:40:29.415Z,100.00
2023-02-12T03:41:27.451Z,100.00
2023-02-12T03:42:16.447Z,100.00
2023-02-12T03:43:31.370Z,100.00
2023-02-12T03:44:17.471Z,100.00
2023-02-12T03:45:12.349Z,100.00
2023-02-12T03:46:10.461Z,100.00
2023-02-12T03:47:11.383Z,100.00
2023-02-12T03:47:58.457Z,100.00
2023-02-12T03:49:20.357Z,100.00
2023-02-12T03:50:29.419Z,100.00
2023-02-12T03:51:17.349Z,100.00
2023-02-12T03:51:58.270Z,100.00
2023-02-12T03:52:39.390Z,100.00
2023-02-12T03:53:19.471Z,100.00
2023-02-12T03:53:59.364Z,100.00
2023-02-12T03:54:39.436Z,100.00
2023-02-12T03:55:21.362Z,100.00
2023-02-12T03:56:22.459Z,100.00
2023-02-12T03:57:13.361Z,100.00
2023-02-12T03:58:06.355Z,100.00
2023-02-12T03:58:41.425Z,100.00
2023-02-12T03:59:29.351Z,100.00
2023-02-12T04:00:10.456Z,100.00
2023-02-12T04:00:58.434Z,100.00
2023-02-12T04:01:33.554Z,100.00
2023-02-12T04:02:23.396Z,100.00
2023-02-12T04:02:58.447Z,100.00
2023-02-12T04:03:39.363Z,100.00
2023-02-12T04:04:19.509Z,100.00
2023-02-12T04:05:00.367Z,100.00
2023-02-12T04:05:40.471Z,100.00
2023-02-12T04:06:35.324Z,100.00
2023-02-12T04:07:15.432Z,100.00
2023-02-12T04:07:57.389Z,100.00
2023-02-12T04:08:38.461Z,100.00
2023-02-12T04:09:19.393Z,100.00
2023-02-12T04:10:00.420Z,100.00
2023-02-12T04:11:03.344Z,100.00
2023-02-12T04:12:19.405Z,100.00
2023-02-12T04:13:08.316Z,100.00
2023-02-12T04:14:26.366Z,100.00
2023-02-12T04:15:25.392Z,100.00
2023-02-12T04:16:39.408Z,100.00
2023-02-12T04:18:17.332Z,100.00
2023-02-12T04:19:11.338Z,100.00
2023-02-12T04:20:11.397Z,100.00
2023-02-12T04:21:15.505Z,100.00
2023-02-12T04:22:21.346Z,100.00
2023-02-12T04:23:53.428Z,100.00
2023-02-12T04:25:07.354Z,100.00
2023-02-12T04:26:21.320Z,100.00
2023-02-12T04:27:27.408Z,100.00
2023-02-12T04:28:35.455Z,100.00
2023-02-12T04:29:31.436Z,100.00
2023-02-12T04:31:06.389Z,100.00
2023-02-12T04:32:00.320Z,100.00
2023-02-12T04:33:14.294Z,100.00
2023-02-12T04:34:42.353Z,100.00
2023-02-12T04:35:54.858Z,100.00
2023-02-12T04:36:56.315Z,100.00
2023-02-12T04:37:55.546Z,100.00
2023-02-12T04:38:48.387Z,100.00
2023-02-12T04:39:32.304Z,100.00
2023-02-12T04:40:21.390Z,100.00
2023-02-12T04:41:02.316Z,100.00
2023-02-12T04:41:42.392Z,100.00
2023-02-12T04:42:23.329Z,100.00
2023-02-12T04:43:10.380Z,100.00
2023-02-12T04:44:04.312Z,100.00
2023-02-12T04:44:58.404Z,100.00
2023-02-12T04:45:52.328Z,100.00
2023-02-12T04:46:46.332Z,100.00
2023-02-12T04:47:40.339Z,100.00
2023-02-12T04:48:28.338Z,100.00
2023-02-12T04:49:06.402Z,100.00
2023-02-12T04:49:53.294Z,100.00
2023-02-12T04:50:27.398Z,100.00
2023-02-12T04:51:14.298Z,100.00
2023-02-12T04:51:48.348Z,100.00
2023-02-12T04:52:35.313Z,100.00
2023-02-12T04:53:09.403Z,100.00
2023-02-12T04:53:49.325Z,100.00
2023-02-12T04:54:30.390Z,100.00
2023-02-12T04:55:11.308Z,100.00
2023-02-12T04:55:51.459Z,100.00
2023-02-12T04:56:31.301Z,100.00
2023-02-12T04:57:11.324Z,100.00
2023-02-12T04:57:51.310Z,100.00
2023-02-12T04:58:31.407Z,100.00
2023-02-12T04:59:12.322Z,100.00
2023-02-12T04:59:52.376Z,100.00
2023-02-12T05:00:32.335Z,100.00
2023-02-12T05:01:13.692Z,100.00
2023-02-12T05:01:54.533Z,100.00
2023-02-12T05:02:34.386Z,100.00
2023-02-12T05:03:15.311Z,100.00
2023-02-12T05:03:55.341Z,100.00
2023-02-12T05:04:35.293Z,100.00
2023-02-12T05:05:15.370Z,100.00
2023-02-12T05:05:55.540Z,100.00
2023-02-12T05:06:37.385Z,100.00
2023-02-12T05:07:19.284Z,100.00
2023-02-12T05:07:59.385Z,100.00
2023-02-12T05:08:40.285Z,100.00
2023-02-12T05:09:24.444Z,100.00
2023-02-12T05:10:05.317Z,100.00
2023-02-12T05:10:45.327Z,100.00
2023-02-12T05:11:26.267Z,100.00
2023-02-12T05:12:06.309Z,100.00
2023-02-12T05:12:46.306Z,100.00
2023-02-12T05:13:26.338Z,100.00
2023-02-12T05:14:07.272Z,100.00
2023-02-12T05:14:47.334Z,100.00
2023-02-12T05:15:29.378Z,100.00
2023-02-12T05:16:14.371Z,100.00
2023-02-12T05:16:54.274Z,100.00
2023-02-12T05:17:34.320Z,100.00
2023-02-12T05:18:14.256Z,100.00
2023-02-12T05:18:54.410Z,100.00
2023-02-12T05:19:35.282Z,100.00
2023-02-12T05:20:16.375Z,100.00
2023-02-12T05:21:07.283Z,100.00
2023-02-12T05:21:47.346Z,100.00
2023-02-12T05:22:28.287Z,100.00
2023-02-12T05:23:08.320Z,100.00
2023-02-12T05:23:49.244Z,100.00
2023-02-12T05:24:29.331Z,100.00
2023-02-12T05:25:10.268Z,100.00
2023-02-12T05:25:50.320Z,100.00
2023-02-12T05:26:30.305Z,100.00
2023-02-12T05:27:10.364Z,100.00
2023-02-12T05:27:51.268Z,100.00
2023-02-12T05:28:32.410Z,100.00
2023-02-12T05:29:12.259Z,100.00
2023-02-12T05:29:52.346Z,100.00
2023-02-12T05:30:32.284Z,100.00
2023-02-12T05:31:15.720Z,100.00
2023-02-12T05:31:56.429Z,100.00
2023-02-12T05:32:36.526Z,100.00
2023-02-12T05:33:16.242Z,100.00
2023-02-12T05:33:56.438Z,100.00
2023-02-12T05:34:36.246Z,100.00
2023-02-12T05:35:20.335Z,100.00
2023-02-12T05:36:02.272Z,100.00
2023-02-12T05:36:42.381Z,100.00
2023-02-12T05:37:23.274Z,100.00
2023-02-12T05:38:03.322Z,100.00
2023-02-12T05:38:44.260Z,100.00
2023-02-12T05:39:25.300Z,100.00
2023-02-12T05:40:06.274Z,100.00
2023-02-12T05:40:46.309Z,100.00
2023-02-12T05:41:29.247Z,100.00
2023-02-12T05:42:09.304Z,100.00
2023-02-12T05:42:49.281Z,100.00
2023-02-12T05:43:29.310Z,100.00
2023-02-12T05:44:12.264Z,100.00
2023-02-12T05:44:52.298Z,100.00
2023-02-12T05:45:36.246Z,100.00
2023-02-12T05:46:17.389Z,100.00
2023-02-12T05:46:57.240Z,100.00
2023-02-12T05:47:37.389Z,100.00
2023-02-12T05:48:18.314Z,100.00
2023-02-12T05:49:12.245Z,100.00
2023-02-12T05:50:06.246Z,100.00
2023-02-12T05:51:00.241Z,100.00
2023-02-12T05:51:54.247Z,100.00
2023-02-12T05:52:48.257Z,100.00
2023-02-12T05:53:35.283Z,100.00
2023-02-12T05:54:12.305Z,100.00
2023-02-12T05:54:59.293Z,100.00
2023-02-12T05:55:33.337Z,100.00
2023-02-12T05:56:27.242Z,100.00
2023-02-12T05:57:01.323Z,100.00
2023-02-12T05:57:48.227Z,100.00
2023-02-12T05:58:22.334Z,100.00
2023-02-12T05:59:06.274Z,100.00
2023-02-12T05:59:46.335Z,100.00
2023-02-12T06:00:27.239Z,100.00
2023-02-12T06:01:07.307Z,100.00
2023-02-12T06:01:50.262Z,100.00
2023-02-12T06:02:30.307Z,100.00
2023-02-12T06:03:10.218Z,100.00
2023-02-12T06:03:51.297Z,100.00
2023-02-12T06:04:35.246Z,100.00
2023-02-12T06:05:15.307Z,100.00
2023-02-12T06:05:59.221Z,100.00
2023-02-12T06:06:42.205Z,100.00
2023-02-12T06:07:22.223Z,100.00
2023-02-12T06:08:02.333Z,100.00
2023-02-12T06:08:43.260Z,100.00
2023-02-12T06:09:24.302Z,100.00
2023-02-12T06:10:06.256Z,100.00
2023-02-12T06:10:46.244Z,100.00
2023-02-12T06:11:27.279Z,100.00
2023-02-12T06:12:08.355Z,100.00
2023-02-12T06:12:48.236Z,100.00
2023-02-12T06:13:28.300Z,100.00
2023-02-12T06:14:11.204Z,100.00
2023-02-12T06:14:51.274Z,100.00
2023-02-12T06:15:31.229Z,100.00
2023-02-12T06:16:12.276Z,100.00
2023-02-12T06:16:54.195Z,100.00
2023-02-12T06:17:48.240Z,100.00
2023-02-12T06:18:43.215Z,100.00
2023-02-12T06:19:37.242Z,100.00
2023-02-12T06:20:31.236Z,100.00
2023-02-12T06:21:25.225Z,100.00
2023-02-12T06:22:19.200Z,100.00
2023-02-12T06:23:13.229Z,100.00
2023-02-12T06:24:08.231Z,100.00
2023-02-12T06:25:02.224Z,100.00
2023-02-12T06:25:49.214Z,100.00
2023-02-12T06:26:24.283Z,100.00
2023-02-12T06:27:11.206Z,100.00
2023-02-12T06:27:45.268Z,100.00
2023-02-12T06:28:32.235Z,100.00
2023-02-12T06:29:06.282Z,100.00
2023-02-12T06:29:53.238Z,100.00
2023-02-12T06:30:27.274Z,100.00
2023-02-12T06:31:26.413Z,100.00
2023-02-12T06:32:00.313Z,100.00
2023-02-12T06:32:47.176Z,100.00
2023-02-12T06:33:21.268Z,100.00
2023-02-12T06:34:12.200Z,100.00
2023-02-12T06:34:47.253Z,100.00
2023-02-12T06:35:35.194Z,100.00
2023-02-12T06:36:11.252Z,100.00
2023-02-12T06:36:53.205Z,100.00
2023-02-12T06:37:36.888Z,100.00
2023-02-12T06:38:18.216Z,100.00
2023-02-12T06:39:00.253Z,100.00
2023-02-12T06:39:40.211Z,100.00
2023-02-12T06:40:20.347Z,100.00
2023-02-12T06:41:00.187Z,100.00
2023-02-12T06:41:40.314Z,100.00
2023-02-12T06:42:20.215Z,100.00
2023-02-12T06:43:01.269Z,100.00
2023-02-12T06:43:41.208Z,100.00
2023-02-12T06:44:21.254Z,100.00
2023-02-12T06:45:01.208Z,100.00
2023-02-12T06:45:41.265Z,100.00
2023-02-12T06:46:21.216Z,100.00
2023-02-12T06:47:02.265Z,100.00
2023-02-12T06:47:42.212Z,100.00
2023-02-12T06:48:22.280Z,100.00
2023-02-12T06:49:05.178Z,100.00
2023-02-12T06:49:45.228Z,100.00
2023-02-12T06:50:26.191Z,100.00
2023-02-12T06:51:24.321Z,100.00
2023-02-12T06:52:04.180Z,100.00
2023-02-12T06:52:51.239Z,100.00
2023-02-12T06:53:47.190Z,100.00
2023-02-12T06:54:41.178Z,100.00
2023-02-12T06:55:35.183Z,100.00
2023-02-12T06:56:29.212Z,100.00
2023-02-12T06:57:23.202Z,100.00
2023-02-12T06:58:10.228Z,100.00
2023-02-12T06:58:48.250Z,100.00
2023-02-12T06:59:35.167Z,100.00
2023-02-12T07:00:09.249Z,100.00
2023-02-12T07:00:56.212Z,100.00
2023-02-12T07:01:34.233Z,100.00
2023-02-12T07:02:21.153Z,100.00
2023-02-12T07:03:01.304Z,100.00
2023-02-12T07:03:42.277Z,100.00
2023-02-12T07:04:22.257Z,100.00
2023-02-12T07:05:02.226Z,100.00
2023-02-12T07:05:42.915Z,100.00
2023-02-12T07:06:24.170Z,100.00
2023-02-12T07:07:04.268Z,100.00
2023-02-12T07:07:45.162Z,100.00
2023-02-12T07:08:25.195Z,100.00
2023-02-12T07:09:05.168Z,100.00
2023-02-12T07:09:45.251Z,100.00
2023-02-12T07:10:26.189Z,100.00
2023-02-12T07:11:06.345Z,100.00
2023-02-12T07:11:47.172Z,100.00
2023-02-12T07:12:27.232Z,100.00
2023-02-12T07:13:07.173Z,100.00
2023-02-12T07:13:49.205Z,100.00
2023-02-12T07:14:29.199Z,100.00
2023-02-12T07:15:12.265Z,100.00
2023-02-12T07:15:53.295Z,100.00
2023-02-12T07:17:00.562Z,100.00
2023-02-12T07:17:54.147Z,100.00
2023-02-12T07:18:49.172Z,100.00
2023-02-12T07:19:44.209Z,100.00
2023-02-12T07:20:38.164Z,100.00
2023-02-12T07:21:32.247Z,100.00
2023-02-12T07:22:29.141Z,100.00
2023-02-12T07:23:27.158Z,100.00
2023-02-12T07:24:21.155Z,100.00
2023-02-12T07:25:08.183Z,100.00
2023-02-12T07:25:42.228Z,100.00
2023-02-12T07:26:30.124Z,100.00
2023-02-12T07:27:04.210Z,100.00
2023-02-12T07:27:51.153Z,99.74
2023-02-12T07:28:25.275Z,99.77
2023-02-12T07:29:12.148Z,100.00
2023-02-12T07:29:46.243Z,100.00
2023-02-12T07:30:33.251Z,100.00
2023-02-12T07:31:16.408Z,100.00
2023-02-12T07:32:03.236Z,100.00
2023-02-12T07:32:40.199Z,100.00
2023-02-12T07:33:29.136Z,100.00
2023-02-12T07:34:06.247Z,100.00
2023-02-12T07:34:54.128Z,100.00
2023-02-12T07:35:28.205Z,100.00
2023-02-12T07:36:10.208Z,100.00
2023-02-12T07:36:51.224Z,100.00
2023-02-12T07:37:32.353Z,100.00
2023-02-12T07:38:12.210Z,100.00
2023-02-12T07:38:53.138Z,100.00
2023-02-12T07:39:33.212Z,100.00
2023-02-12T07:40:15.138Z,100.00
2023-02-12T07:40:57.306Z,100.00
2023-02-12T07:41:41.143Z,100.00
2023-02-12T07:42:21.341Z,100.00
2023-02-12T07:43:03.320Z,100.00
2023-02-12T07:43:43.655Z,100.00
2023-02-12T07:44:25.146Z,100.00
2023-02-12T07:45:05.230Z,100.00
2023-02-12T07:45:45.178Z,100.00
2023-02-12T07:46:35.600Z,100.00
2023-02-12T07:47:15.150Z,100.00
2023-02-12T07:47:55.518Z,100.00
2023-02-12T07:48:35.134Z,100.00
2023-02-12T07:49:22.216Z,100.00
2023-02-12T07:50:02.153Z,100.00
2023-02-12T07:50:42.206Z,100.00
2023-02-12T07:51:27.155Z,100.00
2023-02-12T07:52:07.672Z,100.00
2023-02-12T07:52:49.157Z,100.00
2023-02-12T07:53:29.162Z,100.00
2023-02-12T07:54:10.193Z,100.00
2023-02-12T07:54:50.176Z,100.00
2023-02-12T07:55:30.149Z,100.00
2023-02-12T07:56:32.744Z,100.00
2023-02-12T07:57:14.131Z,100.00
2023-02-12T07:58:01.200Z,100.00
2023-02-12T07:58:58.159Z,100.00
2023-02-12T07:59:52.124Z,100.00
2023-02-12T08:00:46.121Z,100.00
2023-02-12T08:01:47.161Z,100.00
2023-02-12T08:02:41.249Z,100.00
2023-02-12T08:03:21.145Z,100.00
2023-02-12T08:04:09.062Z,99.70
2023-02-12T08:04:51.113Z,99.78
2023-02-12T08:05:31.236Z,100.00
2023-02-12T08:06:23.151Z,100.00
2023-02-12T08:07:04.209Z,100.00
2023-02-12T08:07:44.102Z,100.00
2023-02-12T08:08:31.218Z,100.00
2023-02-12T08:09:30.108Z,99.72
2023-02-12T08:10:32.249Z,100.00
2023-02-12T08:11:28.094Z,99.79
2023-02-12T08:12:22.121Z,99.49
2023-02-12T08:13:16.296Z,98.56
2023-02-12T08:13:58.173Z,98.30
2023-02-12T08:14:38.223Z,97.84
2023-02-12T08:15:19.134Z,97.18
2023-02-12T08:16:10.252Z,97.67
2023-02-12T08:16:52.226Z,98.79
2023-02-12T08:17:32.235Z,98.33
2023-02-12T08:18:12.125Z,97.95
2023-02-12T08:18:53.185Z,97.10
2023-02-12T08:19:36.366Z,97.69
2023-02-12T08:20:16.169Z,97.76
2023-02-12T08:20:56.139Z,97.79
2023-02-12T08:21:37.167Z,97.40
2023-02-12T08:22:17.116Z,97.68
2023-02-12T08:22:58.186Z,98.43
2023-02-12T08:23:40.107Z,98.25
2023-02-12T08:24:21.965Z,97.64
2023-02-12T08:25:05.199Z,98.44
2023-02-12T08:25:53.987Z,97.14
2023-02-12T08:26:41.092Z,98.52
2023-02-12T08:27:24.295Z,98.42
2023-02-12T08:28:04.159Z,97.70
2023-02-12T08:28:47.187Z,97.76
2023-02-12T08:29:32.168Z,98.48
2023-02-12T08:30:20.134Z,97.93
2023-02-12T08:31:18.227Z,98.45
2023-02-12T08:32:17.208Z,98.48
2023-02-12T08:33:11.131Z,96.88
2023-02-12T08:34:07.068Z,97.66
2023-02-12T08:35:01.186Z,97.69
2023-02-12T08:35:46.236Z,98.11
2023-02-12T08:36:34.207Z,98.12
2023-02-12T08:37:20.281Z,97.52
2023-02-12T08:38:05.627Z,97.50
2023-02-12T08:38:47.129Z,97.64
2023-02-12T08:39:28.214Z,97.21
2023-02-12T08:40:09.040Z,97.21
2023-02-12T08:40:56.137Z,97.21
2023-02-12T08:41:51.083Z,97.04
2023-02-12T08:42:47.135Z,96.56
2023-02-12T08:43:42.441Z,96.35
2023-02-12T08:44:36.095Z,96.90
2023-02-12T08:45:30.072Z,97.21
2023-02-12T08:46:24.133Z,97.89
2023-02-12T08:47:00.178Z,97.69
2023-02-12T08:47:47.087Z,97.72
2023-02-12T08:48:21.119Z,97.51
2023-02-12T08:49:19.083Z,97.69
2023-02-12T08:49:53.208Z,97.21
2023-02-12T08:50:43.057Z,97.39
2023-02-12T08:51:23.160Z,97.21
2023-02-12T08:52:06.105Z,97.49
2023-02-12T08:52:47.131Z,97.55
2023-02-12T08:53:27.158Z,96.70
2023-02-12T08:54:10.204Z,96.73
2023-02-12T08:54:50.087Z,95.86
2023-02-12T08:55:44.096Z,95.67
2023-02-12T08:56:43.082Z,95.92
2023-02-12T08:57:30.081Z,96.74
2023-02-12T08:58:04.134Z,96.64
2023-02-12T08:58:52.070Z,96.45
2023-02-12T08:59:26.135Z,96.15
2023-02-12T09:00:15.080Z,96.41
2023-02-12T09:00:49.162Z,96.84
2023-02-12T09:01:38.108Z,96.51
2023-02-12T09:02:12.342Z,96.88
2023-02-12T09:02:55.147Z,96.76
2023-02-12T09:03:35.115Z,96.73
2023-02-12T09:04:41.098Z,96.78
2023-02-12T09:05:21.075Z,97.14
2023-02-12T09:06:01.004Z,96.94
2023-02-12T09:06:42.099Z,96.85
2023-02-12T09:07:22.069Z,96.15
2023-02-12T09:08:11.138Z,95.94
2023-02-12T09:09:07.072Z,96.39
2023-02-12T09:10:01.044Z,96.63
2023-02-12T09:10:58.129Z,96.95
2023-02-12T09:11:52.065Z,96.52
2023-02-12T09:12:46.059Z,96.91
2023-02-12T09:13:34.087Z,96.57
2023-02-12T09:14:11.177Z,96.45
2023-02-12T09:14:59.071Z,95.24
2023-02-12T09:15:33.152Z,95.98
2023-02-12T09:16:21.145Z,96.26
2023-02-12T09:16:57.259Z,95.42
2023-02-12T09:17:44.066Z,95.46
2023-02-12T09:18:20.139Z,96.39
2023-02-12T09:19:01.024Z,95.63
2023-02-12T09:19:41.087Z,94.74
2023-02-12T09:20:23.013Z,94.43
2023-02-12T09:21:09.095Z,94.83
2023-02-12T09:21:50.006Z,95.13
2023-02-12T09:22:30.199Z,94.94
2023-02-12T09:23:15.030Z,94.25
2023-02-12T09:23:58.121Z,95.49
2023-02-12T09:24:40.044Z,94.15
2023-02-12T09:25:20.100Z,94.06
2023-02-12T09:26:00.027Z,94.72
2023-02-12T09:26:40.346Z,95.16
2023-02-12T09:27:21.032Z,95.50
2023-02-12T09:28:02.143Z,95.38
2023-02-12T09:28:43.997Z,95.00
2023-02-12T09:29:24.349Z,95.25
2023-02-12T09:30:04.021Z,95.31
2023-02-12T09:30:48.925Z,94.23
2023-02-12T09:31:34.116Z,94.57
2023-02-12T09:32:15.605Z,93.99
2023-02-12T09:32:56.036Z,94.04
2023-02-12T09:33:36.095Z,94.28
2023-02-12T09:34:16.047Z,93.77
2023-02-12T09:34:56.146Z,93.64
2023-02-12T09:35:37.066Z,94.24
2023-02-12T09:36:23.504Z,95.17
2023-02-12T09:37:02.990Z,95.32
2023-02-12T09:37:44.942Z,95.32
2023-02-12T09:39:34.208Z,95.91
2023-02-12T09:41:37.640Z,96.07
2023-02-12T09:42:52.238Z,97.29
2023-02-12T09:43:55.982Z,96.45
2023-02-12T09:45:27.775Z,97.10
2023-02-12T09:46:39.113Z,96.43
2023-02-12T09:47:49.090Z,96.09
2023-02-12T09:49:38.981Z,97.63
2023-02-12T09:50:40.117Z,96.83
2023-02-12T09:51:22.958Z,96.29
2023-02-12T09:52:04.029Z,96.54
2023-02-12T09:52:42.111Z,96.43
2023-02-12T09:53:35.975Z,96.08
2023-02-12T09:54:26.069Z,96.18